createdAt,value
2022-08-21T00:01:33.697Z,16.18
2022-08-21T00:04:05.492Z,16.19
2022-08-21T00:06:32.152Z,16.23
2022-08-21T00:09:01.791Z,16.38
2022-08-21T00:11:30.615Z,16.31
2022-08-21T00:13:57.120Z,16.41
2022-08-21T00:16:23.634Z,16.46
2022-08-21T00:18:50.766Z,16.48
2022-08-21T00:21:17.390Z,16.28
2022-08-21T00:23:43.937Z,16.23
2022-08-21T00:26:10.333Z,16.20
2022-08-21T00:28:36.921Z,16.21
2022-08-21T00:31:04.846Z,16.16
2022-08-21T00:33:32.787Z,16.19
2022-08-21T00:35:59.212Z,16.16
2022-08-21T00:38:25.629Z,16.17
2022-08-21T00:40:55.581Z,16.14
2022-08-21T00:43:26.242Z,16.13
2022-08-21T00:45:54.251Z,16.15
2022-08-21T00:48:21.384Z,16.21
2022-08-21T00:50:53.796Z,16.23
2022-08-21T00:53:20.229Z,16.30
2022-08-21T00:55:47.092Z,16.32
2022-08-21T00:58:15.420Z,16.25
2022-08-21T01:00:46.597Z,16.23
2022-08-21T01:03:16.420Z,16.30
2022-08-21T01:05:43.616Z,16.35
2022-08-21T01:08:11.056Z,16.42
2022-08-21T01:10:37.984Z,16.31
2022-08-21T01:13:07.713Z,16.31
2022-08-21T01:15:35.240Z,16.18
2022-08-21T01:18:03.784Z,16.21
2022-08-21T01:20:32.529Z,16.17
2022-08-21T01:23:00.184Z,16.08
2022-08-21T01:25:26.633Z,15.99
2022-08-21T01:27:53.094Z,15.92
2022-08-21T01:30:23.719Z,16.04
2022-08-21T01:32:50.406Z,16.02
2022-08-21T01:35:18.235Z,16.03
2022-08-21T01:37:45.180Z,16.09
2022-08-21T01:40:12.769Z,16.06
2022-08-21T01:42:39.708Z,15.95
2022-08-21T01:45:08.027Z,15.96
2022-08-21T01:47:34.519Z,15.90
2022-08-21T01:50:00.967Z,15.78
2022-08-21T01:52:27.374Z,15.85
2022-08-21T01:54:55.670Z,15.85
2022-08-21T01:57:22.887Z,15.90
2022-08-21T01:59:53.277Z,15.87
2022-08-21T02:02:19.839Z,15.80
2022-08-21T02:04:46.375Z,15.73
2022-08-21T02:07:12.801Z,15.83
2022-08-21T02:09:40.290Z,15.90
2022-08-21T02:12:06.857Z,15.76
2022-08-21T02:14:33.270Z,15.76
2022-08-21T02:17:05.147Z,15.84
2022-08-21T02:19:40.070Z,15.74
2022-08-21T02:22:06.970Z,15.73
2022-08-21T02:24:33.854Z,15.70
2022-08-21T02:27:00.252Z,15.66
2022-08-21T02:29:26.665Z,15.66
2022-08-21T02:31:53.991Z,15.70
2022-08-21T02:34:20.396Z,15.59
2022-08-21T02:36:46.854Z,15.65
2022-08-21T02:39:26.892Z,15.56
2022-08-21T02:41:53.830Z,15.63
2022-08-21T02:44:20.228Z,15.53
2022-08-21T02:46:46.647Z,15.57
2022-08-21T02:49:13.056Z,15.54
2022-08-21T02:51:39.466Z,15.56
2022-08-21T02:54:05.913Z,15.48
2022-08-21T02:56:32.324Z,15.50
2022-08-21T02:58:58.741Z,15.62
2022-08-21T03:01:25.829Z,15.62
2022-08-21T03:03:52.608Z,15.53
2022-08-21T03:06:20.988Z,15.53
2022-08-21T03:08:47.561Z,15.50
2022-08-21T03:11:15.259Z,15.53
2022-08-21T03:13:42.155Z,15.64
2022-08-21T03:16:10.071Z,15.60
2022-08-21T03:18:38.112Z,15.56
2022-08-21T03:21:06.925Z,15.58
2022-08-21T03:23:33.565Z,15.55
2022-08-21T03:26:00.713Z,15.51
2022-08-21T03:28:27.237Z,15.52
2022-08-21T03:30:54.179Z,15.54
2022-08-21T03:33:23.117Z,15.54
2022-08-21T03:35:58.691Z,15.40
2022-08-21T03:38:26.728Z,15.41
2022-08-21T03:40:53.841Z,15.44
2022-08-21T03:43:20.265Z,15.40
2022-08-21T03:45:46.720Z,15.27
2022-08-21T03:48:13.293Z,15.33
2022-08-21T03:50:43.217Z,15.27
2022-08-21T03:53:17.623Z,14.98
2022-08-21T03:55:46.598Z,15.15
2022-08-21T03:58:17.807Z,15.13
2022-08-21T04:00:48.953Z,15.16
2022-08-21T04:03:15.669Z,15.26
2022-08-21T04:05:42.483Z,15.18
2022-08-21T04:08:09.409Z,15.23
2022-08-21T04:10:38.788Z,15.20
2022-08-21T04:13:06.461Z,15.21
2022-08-21T04:15:33.290Z,15.19
2022-08-21T04:18:00.155Z,15.18
2022-08-21T04:20:27.177Z,15.07
2022-08-21T04:22:53.855Z,15.09
2022-08-21T04:25:22.340Z,15.09
2022-08-21T04:27:48.811Z,14.96
2022-08-21T04:30:16.236Z,15.09
2022-08-21T04:32:47.719Z,15.09
2022-08-21T04:35:18.398Z,15.07
2022-08-21T04:37:44.852Z,15.02
2022-08-21T04:40:13.533Z,15.14
2022-08-21T04:42:55.432Z,15.07
2022-08-21T04:45:40.827Z,15.16
2022-08-21T04:48:13.714Z,15.14
2022-08-21T04:51:03.545Z,15.00
2022-08-21T04:53:38.501Z,14.96
2022-08-21T04:56:11.099Z,14.80
2022-08-21T04:58:38.481Z,14.82
2022-08-21T05:01:08.438Z,14.70
2022-08-21T05:03:36.696Z,14.65
2022-08-21T05:06:06.660Z,14.51
2022-08-21T05:08:33.872Z,14.63
2022-08-21T05:11:00.845Z,14.75
2022-08-21T05:13:27.561Z,14.82
2022-08-21T05:15:54.371Z,14.96
2022-08-21T05:18:20.757Z,14.98
2022-08-21T05:20:47.144Z,15.02
2022-08-21T05:23:14.615Z,14.93
2022-08-21T05:25:42.285Z,15.07
2022-08-21T05:28:08.840Z,15.07
2022-08-21T05:30:35.967Z,15.13
2022-08-21T05:33:04.033Z,15.24
2022-08-21T05:35:31.144Z,15.18
2022-08-21T05:37:58.012Z,15.24
2022-08-21T05:40:24.694Z,15.31
2022-08-21T05:42:56.260Z,15.34
2022-08-21T05:45:42.344Z,15.43
2022-08-21T05:48:20.610Z,15.51
2022-08-21T05:50:48.401Z,15.61
2022-08-21T05:53:16.026Z,15.67
2022-08-21T05:55:46.073Z,15.53
2022-08-21T05:58:18.395Z,15.60
2022-08-21T06:00:47.997Z,15.67
2022-08-21T06:03:18.035Z,15.74
2022-08-21T06:05:44.564Z,15.73
2022-08-21T06:08:11.013Z,15.81
2022-08-21T06:10:37.580Z,15.79
2022-08-21T06:13:04.301Z,15.91
2022-08-21T06:15:30.716Z,15.84
2022-08-21T06:17:57.199Z,15.99
2022-08-21T06:20:23.787Z,16.04
2022-08-21T06:22:50.197Z,16.06
2022-08-21T06:25:16.717Z,16.03
2022-08-21T06:27:43.128Z,16.17
2022-08-21T06:30:10.069Z,16.17
2022-08-21T06:32:36.607Z,16.20
2022-08-21T06:35:04.133Z,16.31
2022-08-21T06:37:30.743Z,16.45
2022-08-21T06:39:57.188Z,16.43
2022-08-21T06:42:28.048Z,16.37
2022-08-21T06:44:54.656Z,16.63
2022-08-21T06:47:21.069Z,16.77
2022-08-21T06:49:47.473Z,16.78
2022-08-21T06:52:14.699Z,16.81
2022-08-21T06:54:41.621Z,16.91
2022-08-21T06:57:08.308Z,17.08
2022-08-21T06:59:34.813Z,17.17
2022-08-21T07:02:01.340Z,17.29
2022-08-21T07:04:27.814Z,17.42
2022-08-21T07:06:54.212Z,17.53
2022-08-21T07:09:24.529Z,17.55
2022-08-21T07:11:53.492Z,17.79
2022-08-21T07:14:20.718Z,17.72
2022-08-21T07:16:47.901Z,17.91
2022-08-21T07:19:14.343Z,17.91
2022-08-21T07:21:40.765Z,17.89
2022-08-21T07:24:07.219Z,17.97
2022-08-21T07:26:33.608Z,18.14
2022-08-21T07:29:00.013Z,18.22
2022-08-21T07:31:27.254Z,18.42
2022-08-21T07:33:54.272Z,18.55
2022-08-21T07:36:23.600Z,18.67
2022-08-21T07:38:57.993Z,18.81
2022-08-21T07:41:29.822Z,19.03
2022-08-21T07:43:58.170Z,19.16
2022-08-21T07:46:25.318Z,19.33
2022-08-21T07:48:52.199Z,19.43
2022-08-21T07:51:23.124Z,19.59
2022-08-21T07:53:51.204Z,19.85
2022-08-21T07:56:18.623Z,19.82
2022-08-21T07:58:45.223Z,20.06
2022-08-21T08:01:11.702Z,19.78
2022-08-21T08:03:39.580Z,19.76
2022-08-21T08:06:07.132Z,20.11
2022-08-21T08:08:33.788Z,20.19
2022-08-21T08:11:00.926Z,20.30
2022-08-21T08:13:27.354Z,20.63
2022-08-21T08:15:53.862Z,20.64
2022-08-21T08:18:20.283Z,20.85
2022-08-21T08:20:46.691Z,21.04
2022-08-21T08:23:14.515Z,21.13
2022-08-21T08:25:41.233Z,20.96
2022-08-21T08:28:16.461Z,21.02
2022-08-21T08:30:47.773Z,21.27
2022-08-21T08:33:15.183Z,21.42
2022-08-21T08:35:43.795Z,21.53
2022-08-21T08:38:10.729Z,21.87
2022-08-21T08:40:49.108Z,21.96
2022-08-21T08:43:15.744Z,22.10
2022-08-21T08:45:45.840Z,22.29
2022-08-21T08:48:14.797Z,22.39
2022-08-21T08:50:46.546Z,22.56
2022-08-21T08:53:23.312Z,22.03
2022-08-21T08:55:52.844Z,22.55
2022-08-21T08:58:32.465Z,22.44
2022-08-21T09:00:59.782Z,22.76
2022-08-21T09:03:27.757Z,23.23
2022-08-21T09:06:04.888Z,22.70
2022-08-21T09:08:49.776Z,22.28
2022-08-21T09:11:16.061Z,22.74
2022-08-21T09:14:17.847Z,22.56
2022-08-21T09:16:47.172Z,23.23
2022-08-21T09:19:44.499Z,23.23
2022-08-21T09:22:25.814Z,23.27
2022-08-21T09:25:31.748Z,23.32
2022-08-21T09:28:03.469Z,23.43
2022-08-21T09:30:33.211Z,23.08
2022-08-21T09:33:00.706Z,23.34
2022-08-21T09:35:36.331Z,23.48
2022-08-21T09:42:05.227Z,22.69
2022-08-21T09:44:43.436Z,23.40
2022-08-21T09:47:13.798Z,24.55
2022-08-21T09:49:44.688Z,24.45
2022-08-21T09:52:25.176Z,23.89
2022-08-21T09:54:54.027Z,23.53
2022-08-21T09:57:41.730Z,24.49
2022-08-21T10:00:33.138Z,24.73
2022-08-21T10:03:20.188Z,24.20
2022-08-21T10:05:58.871Z,24.80
2022-08-21T10:08:28.183Z,24.67
2022-08-21T10:11:07.442Z,24.95
2022-08-21T10:13:49.959Z,24.47
2022-08-21T10:16:29.825Z,25.24
2022-08-21T10:19:17.388Z,25.55
2022-08-21T10:21:59.096Z,25.40
2022-08-21T10:24:44.336Z,25.35
2022-08-21T10:27:27.893Z,25.17
2022-08-21T10:29:57.359Z,25.21
2022-08-21T10:32:52.378Z,24.47
2022-08-21T10:35:31.666Z,24.52
2022-08-21T10:38:50.274Z,24.20
2022-08-21T10:41:42.666Z,24.04
2022-08-21T10:44:29.167Z,24.41
2022-08-21T10:47:03.601Z,24.22
2022-08-21T10:49:55.785Z,24.15
2022-08-21T10:52:45.074Z,23.60
2022-08-21T10:55:26.533Z,23.28
2022-08-21T10:58:06.428Z,23.74
2022-08-21T11:00:52.414Z,24.12
2022-08-21T11:03:27.200Z,23.76
2022-08-21T11:05:56.124Z,24.13
2022-08-21T11:08:28.036Z,23.59
2022-08-21T11:11:13.825Z,23.87
2022-08-21T11:14:10.858Z,23.47
2022-08-21T11:17:01.892Z,23.10
2022-08-21T11:19:51.665Z,23.15
2022-08-21T11:22:26.596Z,22.95
2022-08-21T11:24:58.118Z,23.16
2022-08-21T11:27:34.553Z,23.42
2022-08-21T11:30:02.469Z,23.40
2022-08-21T11:33:09.774Z,23.12
2022-08-21T11:35:50.632Z,22.87
2022-08-21T11:38:29.338Z,22.70
2022-08-21T11:41:06.741Z,23.34
2022-08-21T11:43:43.791Z,23.48
2022-08-21T11:46:22.071Z,23.63
2022-08-21T11:49:11.776Z,24.00
2022-08-21T11:51:44.051Z,24.02
2022-08-21T11:54:26.878Z,24.09
2022-08-21T11:57:18.689Z,23.53
2022-08-21T11:59:55.026Z,23.95
2022-08-21T12:02:26.048Z,23.66
2022-08-21T12:04:57.063Z,23.64
2022-08-21T12:07:37.368Z,23.52
2022-08-21T12:10:08.314Z,23.46
2022-08-21T12:12:37.659Z,23.75
2022-08-21T12:15:14.050Z,23.85
2022-08-21T12:17:42.410Z,23.74
2022-08-21T12:20:50.622Z,24.36
2022-08-21T12:23:28.230Z,24.51
2022-08-21T12:26:23.889Z,24.39
2022-08-21T12:28:50.812Z,24.44
2022-08-21T12:31:23.100Z,24.02
2022-08-21T12:33:59.493Z,23.86
2022-08-21T12:36:44.116Z,24.04
2022-08-21T12:39:19.559Z,24.39
2022-08-21T12:42:01.653Z,24.75
2022-08-21T12:44:39.601Z,24.95
2022-08-21T12:47:26.176Z,24.97
2022-08-21T12:49:59.183Z,25.53
2022-08-21T12:52:38.988Z,25.52
2022-08-21T12:55:07.551Z,25.43
2022-08-21T12:57:37.171Z,25.02
2022-08-21T13:00:09.722Z,25.15
2022-08-21T13:02:43.948Z,25.75
2022-08-21T13:05:21.672Z,25.72
2022-08-21T13:07:49.074Z,25.73
2022-08-21T13:10:25.861Z,25.60
2022-08-21T13:12:58.032Z,25.26
2022-08-21T13:15:33.745Z,25.21
2022-08-21T13:18:03.746Z,25.26
2022-08-21T13:20:36.173Z,26.21
2022-08-21T13:23:21.810Z,25.82
2022-08-21T13:25:48.374Z,26.16
2022-08-21T13:28:16.024Z,25.61
2022-08-21T13:30:45.651Z,25.66
2022-08-21T13:33:34.844Z,25.61
2022-08-21T13:36:12.948Z,25.42
2022-08-21T13:38:41.635Z,25.28
2022-08-21T13:41:24.733Z,25.20
2022-08-21T13:44:20.608Z,25.60
2022-08-21T13:46:50.471Z,26.04
2022-08-21T13:49:23.635Z,25.98
2022-08-21T13:51:53.097Z,26.16
2022-08-21T13:54:39.280Z,26.68
2022-08-21T13:57:20.429Z,26.20
2022-08-21T13:59:47.400Z,26.57
2022-08-21T14:02:17.960Z,26.61
2022-08-21T14:04:56.262Z,26.14
2022-08-21T14:07:30.095Z,26.23
2022-08-21T14:09:56.758Z,25.53
2022-08-21T14:12:30.575Z,25.41
2022-08-21T14:14:58.330Z,24.80
2022-08-21T14:17:45.406Z,25.29
2022-08-21T14:20:28.156Z,24.98
2022-08-21T14:22:54.818Z,25.26
2022-08-21T14:25:25.442Z,25.55
2022-08-21T14:27:52.990Z,25.47
2022-08-21T14:30:37.215Z,24.62
2022-08-21T14:33:05.310Z,25.20
2022-08-21T14:35:32.141Z,24.73
2022-08-21T14:37:58.789Z,25.41
2022-08-21T14:40:26.391Z,25.06
2022-08-21T14:42:55.896Z,24.33
2022-08-21T14:45:30.804Z,24.81
2022-08-21T14:47:58.530Z,24.91
2022-08-21T14:50:28.094Z,24.73
2022-08-21T14:52:55.749Z,24.90
2022-08-21T14:55:25.210Z,24.47
2022-08-21T14:57:53.136Z,24.61
2022-08-21T15:00:35.436Z,24.45
2022-08-21T15:03:02.787Z,24.25
2022-08-21T15:05:32.850Z,24.12
2022-08-21T15:08:05.208Z,24.57
2022-08-21T15:10:33.798Z,24.59
2022-08-21T15:13:01.229Z,24.81
2022-08-21T15:15:35.498Z,24.53
2022-08-21T15:20:42.540Z,24.21
2022-08-21T15:23:13.035Z,24.08
2022-08-21T15:25:42.935Z,23.91
2022-08-21T15:28:11.818Z,23.82
2022-08-21T15:30:39.229Z,24.04
2022-08-21T15:33:05.829Z,23.56
2022-08-21T15:35:33.080Z,23.89
2022-08-21T15:38:05.340Z,24.11
2022-08-21T15:40:37.732Z,23.93
2022-08-21T15:43:05.440Z,23.35
2022-08-21T15:45:32.302Z,23.85
2022-08-21T15:48:01.762Z,23.51
2022-08-21T15:50:29.941Z,23.61
2022-08-21T15:52:56.547Z,23.66
2022-08-21T15:55:28.617Z,23.68
2022-08-21T15:57:57.927Z,23.83
2022-08-21T16:00:26.666Z,23.74
2022-08-21T16:02:55.818Z,23.17
2022-08-21T16:05:22.955Z,23.41
2022-08-21T16:07:52.596Z,23.31
2022-08-21T16:10:23.180Z,23.05
2022-08-21T16:12:58.854Z,23.49
2022-08-21T16:15:26.679Z,23.42
2022-08-21T16:17:54.217Z,23.49
2022-08-21T16:20:24.964Z,23.22
2022-08-21T16:22:52.633Z,23.34
2022-08-21T16:25:23.683Z,23.00
2022-08-21T16:27:59.420Z,22.72
2022-08-21T16:30:28.598Z,23.15
2022-08-21T16:32:57.830Z,23.16
2022-08-21T16:35:25.179Z,23.06
2022-08-21T16:37:53.296Z,23.11
2022-08-21T16:40:20.811Z,22.99
2022-08-21T16:42:48.891Z,23.28
2022-08-21T16:45:17.952Z,22.96
2022-08-21T16:47:47.869Z,22.98
2022-08-21T16:50:20.132Z,23.00
2022-08-21T16:52:46.665Z,23.16
2022-08-21T16:55:13.149Z,23.32
2022-08-21T16:57:41.110Z,23.51
2022-08-21T17:00:17.409Z,23.73
2022-08-21T17:05:54.074Z,23.51
2022-08-21T17:08:40.587Z,23.55
2022-08-21T17:11:36.470Z,23.54
2022-08-21T17:14:15.846Z,23.22
2022-08-21T17:16:45.442Z,23.00
2022-08-21T17:19:22.269Z,23.30
2022-08-21T17:21:51.550Z,23.12
2022-08-21T17:24:31.356Z,22.79
2022-08-21T17:27:16.250Z,23.16
2022-08-21T17:30:01.729Z,23.07
2022-08-21T17:33:15.757Z,22.64
2022-08-21T17:35:44.954Z,22.67
2022-08-21T17:40:58.452Z,22.40
2022-08-21T17:43:32.621Z,22.19
2022-08-21T17:46:36.324Z,22.47
2022-08-21T17:49:14.981Z,22.89
2022-08-21T17:52:16.573Z,22.98
2022-08-21T17:55:18.044Z,22.20
2022-08-21T17:57:55.757Z,22.18
2022-08-21T18:00:27.873Z,22.48
2022-08-21T18:03:15.267Z,22.60
2022-08-21T18:05:50.789Z,22.12
2022-08-21T18:08:21.135Z,22.35
2022-08-21T18:10:54.567Z,22.31
2022-08-21T18:13:29.123Z,21.77
2022-08-21T18:16:02.279Z,21.94
2022-08-21T18:18:51.639Z,21.79
2022-08-21T18:21:23.802Z,21.82
2022-08-21T18:23:54.946Z,22.11
2022-08-21T18:26:38.415Z,22.00
2022-08-21T18:29:14.779Z,21.85
2022-08-21T18:31:53.522Z,21.87
2022-08-21T18:34:40.981Z,21.80
2022-08-21T18:37:23.047Z,21.43
2022-08-21T18:40:35.639Z,21.37
2022-08-21T18:43:15.503Z,21.62
2022-08-21T18:48:56.167Z,21.25
2022-08-21T18:51:24.019Z,20.96
2022-08-21T18:54:12.903Z,21.38
2022-08-21T18:56:46.655Z,20.68
2022-08-21T18:59:27.753Z,20.99
2022-08-21T19:02:05.012Z,20.38
2022-08-21T19:04:48.221Z,21.00
2022-08-21T19:07:18.558Z,20.90
2022-08-21T19:12:47.749Z,20.72
2022-08-21T19:15:30.096Z,20.40
2022-08-21T19:18:21.389Z,20.58
2022-08-21T19:20:57.719Z,20.70
2022-08-21T19:23:29.369Z,20.90
2022-08-21T19:26:00.450Z,20.81
2022-08-21T19:28:31.192Z,20.88
2022-08-21T19:31:05.219Z,20.69
2022-08-21T19:33:37.478Z,20.44
2022-08-21T19:36:07.509Z,20.55
2022-08-21T19:38:34.456Z,20.70
2022-08-21T19:41:01.703Z,20.75
2022-08-21T19:43:29.344Z,20.55
2022-08-21T19:45:56.906Z,20.62
2022-08-21T19:48:24.708Z,20.43
2022-08-21T19:50:51.651Z,20.55
2022-08-21T19:53:19.513Z,20.48
2022-08-21T19:55:46.817Z,19.79
2022-08-21T19:58:39.511Z,20.07
2022-08-21T20:06:43.083Z,20.30
2022-08-21T20:09:10.622Z,19.98
2022-08-21T20:11:44.608Z,19.99
2022-08-21T20:14:13.600Z,20.02
2022-08-21T20:16:41.510Z,19.99
2022-08-21T20:19:08.364Z,19.93
2022-08-21T20:21:43.360Z,19.95
2022-08-21T20:24:12.062Z,19.86
2022-08-21T20:26:49.170Z,19.80
2022-08-21T20:29:24.610Z,19.87
2022-08-21T20:31:59.090Z,19.78
2022-08-21T20:34:25.601Z,19.94
2022-08-21T20:36:53.270Z,19.83
2022-08-21T20:39:19.868Z,19.73
2022-08-21T20:41:52.042Z,19.77
2022-08-21T20:44:18.504Z,19.77
2022-08-21T20:46:45.306Z,19.60
2022-08-21T20:49:16.279Z,19.26
2022-08-21T20:51:45.528Z,19.56
2022-08-21T20:54:21.569Z,19.56
2022-08-21T20:56:56.804Z,19.66
2022-08-21T20:59:32.919Z,19.75
2022-08-21T21:02:02.062Z,19.50
2022-08-21T21:04:52.650Z,19.57
2022-08-21T21:07:25.201Z,19.49
2022-08-21T21:09:52.538Z,19.72
2022-08-21T21:15:30.845Z,19.65
2022-08-21T21:18:00.820Z,19.69
2022-08-21T21:20:34.520Z,19.24
2022-08-21T21:23:18.458Z,19.62
2022-08-21T21:25:57.424Z,19.71
2022-08-21T21:28:47.087Z,19.62
2022-08-21T21:31:13.915Z,19.56
2022-08-21T21:33:40.721Z,19.59
2022-08-21T21:36:10.469Z,19.69
2022-08-21T21:38:51.879Z,19.66
2022-08-21T21:41:46.010Z,19.58
2022-08-21T21:44:45.209Z,19.60
2022-08-21T21:47:29.223Z,19.61
2022-08-21T21:50:20.852Z,19.65
2022-08-21T21:53:00.241Z,19.65
2022-08-21T21:55:36.476Z,19.58
2022-08-21T21:58:41.632Z,19.66
2022-08-21T22:01:13.144Z,19.76
2022-08-21T22:04:00.212Z,19.76
2022-08-21T22:06:42.024Z,19.59
2022-08-21T22:09:19.195Z,19.86
2022-08-21T22:12:00.692Z,19.78
2022-08-21T22:14:43.791Z,19.75
2022-08-21T22:17:31.804Z,19.53
2022-08-21T22:20:04.911Z,19.61
2022-08-21T22:22:32.433Z,19.55
2022-08-21T22:25:14.459Z,19.55
2022-08-21T22:27:41.398Z,19.51
2022-08-21T22:30:12.143Z,19.64
2022-08-21T22:32:46.054Z,19.48
2022-08-21T22:35:12.829Z,19.61
2022-08-21T22:37:44.670Z,19.56
2022-08-21T22:40:15.765Z,19.54
2022-08-21T22:42:42.289Z,19.46
2022-08-21T22:45:12.194Z,19.47
2022-08-21T22:47:43.236Z,19.51
2022-08-21T22:50:21.317Z,19.36
2022-08-21T22:52:53.960Z,19.34
2022-08-21T22:55:43.774Z,19.41
2022-08-21T22:58:21.360Z,19.43
2022-08-21T23:01:08.572Z,19.25
2022-08-21T23:03:47.085Z,19.35
2022-08-21T23:06:26.366Z,19.31
2022-08-21T23:08:53.228Z,19.29
2022-08-21T23:11:24.896Z,19.28
2022-08-21T23:13:54.513Z,19.30
2022-08-21T23:16:52.898Z,19.23
2022-08-21T23:19:37.916Z,19.29
2022-08-21T23:22:10.669Z,19.24
2022-08-21T23:25:30.604Z,19.13
2022-08-21T23:28:05.653Z,19.15
2022-08-21T23:30:57.044Z,19.09
2022-08-21T23:33:56.186Z,19.03
2022-08-21T23:37:06.293Z,19.12
2022-08-21T23:39:40.949Z,19.14
2022-08-21T23:42:24.532Z,19.10
2022-08-21T23:45:14.063Z,19.21
2022-08-21T23:47:50.999Z,19.15
2022-08-21T23:50:24.744Z,19.10
2022-08-21T23:53:10.391Z,19.08
2022-08-21T23:55:55.565Z,19.02
2022-08-21T23:58:33.860Z,19.08
